logo
Search for airport 
image banner adimage banner adimage banner ad
image banner ad

SDW7 - Fazenda Jóia

Located in Santa Rita Do Tocantins, Brazil

ICAO - SDW7, IATA -

Data provided by Airmate  

General information

Coordinates: S10°50'24" W49°28'6"
Elevation is 633 feet MSL.
 
View others Airports in Tocatins

Operational data

Special qualification required
Current time UTC:
Current local time:
Weather at : - ( 0 km )
METAR: EKYT 140442Z AUTO 27022G33KT 9999 BKN025/// 07/04 Q1006
View NOTAMs / SUP AIP / TFR affecting this airport [VIEW]
Communications frequencies: [VIEW]

Runways:

RWY identifierQFULength (ft)Width (ft)SurfaceLDA (ft)
02278959GRAVEL
20278959GRAVEL

Airport contact information

Address: Santa Rita Do Tocantins Brazil

Satellite view of SDW7